sensor_id;sensor_type;location;lat;lon;timestamp;temperature;humidity
17851;DHT22;9051;51.548;14.348;2023-04-24T00:02:17;11.00;99.90
17851;DHT22;9051;51.548;14.348;2023-04-24T00:04:49;10.90;99.90
17851;DHT22;9051;51.548;14.348;2023-04-24T00:07:23;10.90;99.90
17851;DHT22;9051;51.548;14.348;2023-04-24T00:09:55;10.90;99.90
17851;DHT22;9051;51.548;14.348;2023-04-24T00:12:27;10.90;99.90
17851;DHT22;9051;51.548;14.348;2023-04-24T00:14:59;10.90;99.90
17851;DHT22;9051;51.548;14.348;2023-04-24T00:17:31;10.90;99.90
17851;DHT22;9051;51.548;14.348;2023-04-24T00:20:03;10.90;99.90
17851;DHT22;9051;51.548;14.348;2023-04-24T00:22:38;10.90;99.90
17851;DHT22;9051;51.548;14.348;2023-04-24T00:25:10;10.90;99.90
17851;DHT22;9051;51.548;14.348;2023-04-24T00:27:42;10.90;99.90
17851;DHT22;9051;51.548;14.348;2023-04-24T00:30:14;10.80;99.90
17851;DHT22;9051;51.548;14.348;2023-04-24T00:32:46;10.80;99.90
17851;DHT22;9051;51.548;14.348;2023-04-24T00:35:18;10.80;99.90
17851;DHT22;9051;51.548;14.348;2023-04-24T00:37:52;10.80;99.90
17851;DHT22;9051;51.548;14.348;2023-04-24T00:40:24;10.80;99.90
17851;DHT22;9051;51.548;14.348;2023-04-24T00:42:56;10.80;99.90
17851;DHT22;9051;51.548;14.348;2023-04-24T00:45:28;10.80;99.90
17851;DHT22;9051;51.548;14.348;2023-04-24T00:48:02;10.70;99.90
17851;DHT22;9051;51.548;14.348;2023-04-24T00:50:35;10.70;99.90
17851;DHT22;9051;51.548;14.348;2023-04-24T00:53:09;10.70;99.90
17851;DHT22;9051;51.548;14.348;2023-04-24T00:55:41;10.70;99.90
17851;DHT22;9051;51.548;14.348;2023-04-24T00:58:13;10.70;99.90
17851;DHT22;9051;51.548;14.348;2023-04-24T01:00:45;10.60;99.90
17851;DHT22;9051;51.548;14.348;2023-04-24T01:03:17;10.60;99.90
17851;DHT22;9051;51.548;14.348;2023-04-24T01:05:50;10.60;99.90
17851;DHT22;9051;51.548;14.348;2023-04-24T01:08:24;10.60;99.90
17851;DHT22;9051;51.548;14.348;2023-04-24T01:10:58;10.50;99.90
17851;DHT22;9051;51.548;14.348;2023-04-24T01:13:31;10.50;99.90
17851;DHT22;9051;51.548;14.348;2023-04-24T01:16:03;10.50;99.90
17851;DHT22;9051;51.548;14.348;2023-04-24T01:18:35;10.50;99.90
17851;DHT22;9051;51.548;14.348;2023-04-24T01:21:08;10.40;99.90
17851;DHT22;9051;51.548;14.348;2023-04-24T01:23:42;10.40;99.90
17851;DHT22;9051;51.548;14.348;2023-04-24T01:26:18;10.50;99.90
17851;DHT22;9051;51.548;14.348;2023-04-24T01:28:50;10.50;99.90
17851;DHT22;9051;51.548;14.348;2023-04-24T01:31:22;10.50;99.90
17851;DHT22;9051;51.548;14.348;2023-04-24T01:33:55;10.50;99.90
17851;DHT22;9051;51.548;14.348;2023-04-24T01:36:28;10.60;99.90
17851;DHT22;9051;51.548;14.348;2023-04-24T01:39:03;10.60;99.90
17851;DHT22;9051;51.548;14.348;2023-04-24T01:41:35;10.60;99.90
17851;DHT22;9051;51.548;14.348;2023-04-24T01:44:07;10.60;99.90
17851;DHT22;9051;51.548;14.348;2023-04-24T01:46:39;10.70;99.90
17851;DHT22;9051;51.548;14.348;2023-04-24T01:49:11;10.70;99.90
17851;DHT22;9051;51.548;14.348;2023-04-24T01:51:43;10.70;99.90
17851;DHT22;9051;51.548;14.348;2023-04-24T01:54:17;10.70;99.90
17851;DHT22;9051;51.548;14.348;2023-04-24T01:56:48;10.70;99.90
17851;DHT22;9051;51.548;14.348;2023-04-24T01:59:20;10.70;99.90
17851;DHT22;9051;51.548;14.348;2023-04-24T02:01:53;10.70;99.90
17851;DHT22;9051;51.548;14.348;2023-04-24T02:04:25;10.70;99.90
17851;DHT22;9051;51.548;14.348;2023-04-24T02:06:56;10.70;99.90
17851;DHT22;9051;51.548;14.348;2023-04-24T02:09:30;10.70;99.90
17851;DHT22;9051;51.548;14.348;2023-04-24T02:12:02;10.70;99.90
17851;DHT22;9051;51.548;14.348;2023-04-24T02:14:34;10.60;99.90
17851;DHT22;9051;51.548;14.348;2023-04-24T02:17:07;10.60;99.90
17851;DHT22;9051;51.548;14.348;2023-04-24T02:19:41;10.60;99.90
17851;DHT22;9051;51.548;14.348;2023-04-24T02:22:14;10.60;99.90
17851;DHT22;9051;51.548;14.348;2023-04-24T02:24:48;10.60;99.90
17851;DHT22;9051;51.548;14.348;2023-04-24T02:27:21;10.50;99.90
17851;DHT22;9051;51.548;14.348;2023-04-24T02:29:53;10.50;99.90
17851;DHT22;9051;51.548;14.348;2023-04-24T02:32:26;10.40;99.90
17851;DHT22;9051;51.548;14.348;2023-04-24T02:34:58;10.50;99.90
17851;DHT22;9051;51.548;14.348;2023-04-24T02:37:30;10.40;99.90
17851;DHT22;9051;51.548;14.348;2023-04-24T02:40:04;10.40;99.90
17851;DHT22;9051;51.548;14.348;2023-04-24T02:42:36;10.30;99.90
17851;DHT22;9051;51.548;14.348;2023-04-24T02:45:09;10.30;99.90
17851;DHT22;9051;51.548;14.348;2023-04-24T02:47:41;10.30;99.90
17851;DHT22;9051;51.548;14.348;2023-04-24T02:50:13;10.30;99.90
17851;DHT22;9051;51.548;14.348;2023-04-24T02:52:45;10.30;99.90
17851;DHT22;9051;51.548;14.348;2023-04-24T02:55:19;10.30;99.90
17851;DHT22;9051;51.548;14.348;2023-04-24T02:57:51;10.20;99.90
17851;DHT22;9051;51.548;14.348;2023-04-24T03:00:23;10.20;99.90
17851;DHT22;9051;51.548;14.348;2023-04-24T03:02:56;10.20;99.90
17851;DHT22;9051;51.548;14.348;2023-04-24T03:05:28;10.20;99.90
17851;DHT22;9051;51.548;14.348;2023-04-24T03:08:01;10.20;99.90
17851;DHT22;9051;51.548;14.348;2023-04-24T03:10:37;10.20;99.90
17851;DHT22;9051;51.548;14.348;2023-04-24T03:13:09;10.20;99.90
17851;DHT22;9051;51.548;14.348;2023-04-24T03:15:41;10.20;99.90
17851;DHT22;9051;51.548;14.348;2023-04-24T03:18:13;10.20;99.90
17851;DHT22;9051;51.548;14.348;2023-04-24T03:20:46;10.20;99.90
17851;DHT22;9051;51.548;14.348;2023-04-24T03:23:18;10.20;99.90
17851;DHT22;9051;51.548;14.348;2023-04-24T03:25:52;10.20;99.90
17851;DHT22;9051;51.548;14.348;2023-04-24T03:28:25;10.20;99.90
17851;DHT22;9051;51.548;14.348;2023-04-24T03:31:03;10.20;99.90
17851;DHT22;9051;51.548;14.348;2023-04-24T03:33:38;10.30;99.90
17851;DHT22;9051;51.548;14.348;2023-04-24T03:36:11;10.30;99.90
17851;DHT22;9051;51.548;14.348;2023-04-24T03:38:45;10.40;99.90
17851;DHT22;9051;51.548;14.348;2023-04-24T03:41:33;10.40;99.90
17851;DHT22;9051;51.548;14.348;2023-04-24T03:44:13;10.50;99.90
17851;DHT22;9051;51.548;14.348;2023-04-24T03:46:46;10.60;99.90
17851;DHT22;9051;51.548;14.348;2023-04-24T03:49:23;10.70;99.90
17851;DHT22;9051;51.548;14.348;2023-04-24T03:51:55;10.70;99.90
17851;DHT22;9051;51.548;14.348;2023-04-24T03:54:30;10.80;99.90
17851;DHT22;9051;51.548;14.348;2023-04-24T03:57:07;10.80;99.90
17851;DHT22;9051;51.548;14.348;2023-04-24T03:59:43;10.90;99.90
17851;DHT22;9051;51.548;14.348;2023-04-24T04:02:21;11.00;99.90
17851;DHT22;9051;51.548;14.348;2023-04-24T04:04:53;11.00;99.90
17851;DHT22;9051;51.548;14.348;2023-04-24T04:07:25;11.00;99.90
17851;DHT22;9051;51.548;14.348;2023-04-24T04:09:57;11.10;99.90
17851;DHT22;9051;51.548;14.348;2023-04-24T04:12:30;11.20;99.90
17851;DHT22;9051;51.548;14.348;2023-04-24T04:15:03;11.20;99.90
17851;DHT22;9051;51.548;14.348;2023-04-24T04:17:36;11.20;99.90
17851;DHT22;9051;51.548;14.348;2023-04-24T04:20:10;11.30;99.90
17851;DHT22;9051;51.548;14.348;2023-04-24T04:22:44;11.30;99.90
17851;DHT22;9051;51.548;14.348;2023-04-24T04:25:21;11.40;99.90
17851;DHT22;9051;51.548;14.348;2023-04-24T04:27:55;11.40;99.90
17851;DHT22;9051;51.548;14.348;2023-04-24T04:30:28;11.50;99.90
17851;DHT22;9051;51.548;14.348;2023-04-24T04:33:06;11.50;99.90
17851;DHT22;9051;51.548;14.348;2023-04-24T04:35:40;11.50;99.90
17851;DHT22;9051;51.548;14.348;2023-04-24T04:38:13;11.50;99.90
17851;DHT22;9051;51.548;14.348;2023-04-24T04:40:58;11.50;99.90
17851;DHT22;9051;51.548;14.348;2023-04-24T04:43:38;11.60;99.90
17851;DHT22;9051;51.548;14.348;2023-04-24T04:46:13;11.60;99.90
17851;DHT22;9051;51.548;14.348;2023-04-24T04:49:17;11.60;99.90
17851;DHT22;9051;51.548;14.348;2023-04-24T04:51:52;11.70;99.90
17851;DHT22;9051;51.548;14.348;2023-04-24T04:54:30;11.80;99.90
17851;DHT22;9051;51.548;14.348;2023-04-24T04:57:02;11.80;99.90
17851;DHT22;9051;51.548;14.348;2023-04-24T04:59:36;11.90;99.90
17851;DHT22;9051;51.548;14.348;2023-04-24T05:02:13;11.90;99.90
17851;DHT22;9051;51.548;14.348;2023-04-24T05:04:45;11.90;99.90
17851;DHT22;9051;51.548;14.348;2023-04-24T05:07:17;12.00;99.90
17851;DHT22;9051;51.548;14.348;2023-04-24T05:09:54;12.00;99.90
17851;DHT22;9051;51.548;14.348;2023-04-24T05:12:26;12.00;99.90
17851;DHT22;9051;51.548;14.348;2023-04-24T05:15:00;12.10;99.90
17851;DHT22;9051;51.548;14.348;2023-04-24T05:17:32;12.10;99.90
17851;DHT22;9051;51.548;14.348;2023-04-24T05:20:05;12.20;99.90
17851;DHT22;9051;51.548;14.348;2023-04-24T05:22:38;12.20;99.90
17851;DHT22;9051;51.548;14.348;2023-04-24T05:25:11;12.30;99.90
17851;DHT22;9051;51.548;14.348;2023-04-24T05:27:49;12.40;99.90
17851;DHT22;9051;51.548;14.348;2023-04-24T05:30:24;12.50;99.90
17851;DHT22;9051;51.548;14.348;2023-04-24T05:32:56;12.60;99.90
17851;DHT22;9051;51.548;14.348;2023-04-24T05:35:28;12.70;99.90
17851;DHT22;9051;51.548;14.348;2023-04-24T05:38:00;12.80;99.90
17851;DHT22;9051;51.548;14.348;2023-04-24T05:40:32;12.90;99.90
17851;DHT22;9051;51.548;14.348;2023-04-24T05:43:04;12.90;99.90
17851;DHT22;9051;51.548;14.348;2023-04-24T05:45:38;13.10;99.90
17851;DHT22;9051;51.548;14.348;2023-04-24T05:48:10;13.20;99.90
17851;DHT22;9051;51.548;14.348;2023-04-24T05:50:42;13.30;99.90
17851;DHT22;9051;51.548;14.348;2023-04-24T05:53:15;13.40;99.90
17851;DHT22;9051;51.548;14.348;2023-04-24T05:55:47;13.50;99.90
17851;DHT22;9051;51.548;14.348;2023-04-24T05:58:20;13.60;99.90
17851;DHT22;9051;51.548;14.348;2023-04-24T06:00:54;13.70;99.90
17851;DHT22;9051;51.548;14.348;2023-04-24T06:03:26;13.70;99.90
17851;DHT22;9051;51.548;14.348;2023-04-24T06:05:58;13.70;99.90
17851;DHT22;9051;51.548;14.348;2023-04-24T06:08:31;13.80;99.90
17851;DHT22;9051;51.548;14.348;2023-04-24T06:11:03;13.90;99.90
17851;DHT22;9051;51.548;14.348;2023-04-24T06:13:35;14.00;99.90
17851;DHT22;9051;51.548;14.348;2023-04-24T06:16:27;14.10;99.90
17851;DHT22;9051;51.548;14.348;2023-04-24T06:19:06;14.20;99.90
17851;DHT22;9051;51.548;14.348;2023-04-24T06:21:37;14.30;99.90
17851;DHT22;9051;51.548;14.348;2023-04-24T06:24:10;14.30;99.90
17851;DHT22;9051;51.548;14.348;2023-04-24T06:26:42;14.30;99.90
17851;DHT22;9051;51.548;14.348;2023-04-24T06:29:14;14.30;99.90
17851;DHT22;9051;51.548;14.348;2023-04-24T06:31:47;14.30;99.90
17851;DHT22;9051;51.548;14.348;2023-04-24T06:34:20;14.30;99.90
17851;DHT22;9051;51.548;14.348;2023-04-24T06:36:52;14.30;99.90
17851;DHT22;9051;51.548;14.348;2023-04-24T06:39:24;14.30;99.90
17851;DHT22;9051;51.548;14.348;2023-04-24T06:41:56;14.40;99.90
17851;DHT22;9051;51.548;14.348;2023-04-24T06:44:28;14.50;99.90
17851;DHT22;9051;51.548;14.348;2023-04-24T06:47:02;14.40;99.90
17851;DHT22;9051;51.548;14.348;2023-04-24T06:49:34;14.40;99.90
17851;DHT22;9051;51.548;14.348;2023-04-24T06:52:07;14.40;99.90
17851;DHT22;9051;51.548;14.348;2023-04-24T06:54:39;14.40;99.90
17851;DHT22;9051;51.548;14.348;2023-04-24T06:57:11;14.40;99.90
17851;DHT22;9051;51.548;14.348;2023-04-24T06:59:43;14.50;99.90
17851;DHT22;9051;51.548;14.348;2023-04-24T07:02:16;14.50;99.90
17851;DHT22;9051;51.548;14.348;2023-04-24T07:04:48;14.50;99.90
17851;DHT22;9051;51.548;14.348;2023-04-24T07:07:20;14.60;99.90
17851;DHT22;9051;51.548;14.348;2023-04-24T07:09:54;14.70;99.90
17851;DHT22;9051;51.548;14.348;2023-04-24T07:12:26;14.80;99.90
17851;DHT22;9051;51.548;14.348;2023-04-24T07:14:58;14.80;99.90
17851;DHT22;9051;51.548;14.348;2023-04-24T07:17:32;14.80;99.90
17851;DHT22;9051;51.548;14.348;2023-04-24T07:20:04;14.90;99.90
17851;DHT22;9051;51.548;14.348;2023-04-24T07:22:40;14.80;99.90
17851;DHT22;9051;51.548;14.348;2023-04-24T07:25:12;14.80;99.90
17851;DHT22;9051;51.548;14.348;2023-04-24T07:27:44;14.90;99.90
17851;DHT22;9051;51.548;14.348;2023-04-24T07:30:16;15.00;99.90
17851;DHT22;9051;51.548;14.348;2023-04-24T07:32:49;15.00;99.90
17851;DHT22;9051;51.548;14.348;2023-04-24T07:35:22;15.10;99.90
17851;DHT22;9051;51.548;14.348;2023-04-24T07:37:56;15.10;99.90
17851;DHT22;9051;51.548;14.348;2023-04-24T07:40:27;15.20;99.90
17851;DHT22;9051;51.548;14.348;2023-04-24T07:43:00;15.30;99.90
17851;DHT22;9051;51.548;14.348;2023-04-24T07:45:32;15.30;99.90
17851;DHT22;9051;51.548;14.348;2023-04-24T07:48:09;15.40;99.90
17851;DHT22;9051;51.548;14.348;2023-04-24T07:50:41;15.40;99.90
17851;DHT22;9051;51.548;14.348;2023-04-24T07:53:13;15.40;99.90
17851;DHT22;9051;51.548;14.348;2023-04-24T07:55:45;15.50;99.90
17851;DHT22;9051;51.548;14.348;2023-04-24T07:58:17;15.50;99.90
17851;DHT22;9051;51.548;14.348;2023-04-24T08:00:49;15.70;99.90
17851;DHT22;9051;51.548;14.348;2023-04-24T08:03:22;15.70;99.90
17851;DHT22;9051;51.548;14.348;2023-04-24T08:05:55;15.70;99.90
17851;DHT22;9051;51.548;14.348;2023-04-24T08:08:28;15.80;99.90
17851;DHT22;9051;51.548;14.348;2023-04-24T08:11:02;15.80;99.90
17851;DHT22;9051;51.548;14.348;2023-04-24T08:13:35;15.90;99.90
17851;DHT22;9051;51.548;14.348;2023-04-24T08:16:07;15.80;99.90
17851;DHT22;9051;51.548;14.348;2023-04-24T08:18:40;15.90;99.90
17851;DHT22;9051;51.548;14.348;2023-04-24T08:21:12;15.90;99.90
17851;DHT22;9051;51.548;14.348;2023-04-24T08:23:47;15.90;99.90
17851;DHT22;9051;51.548;14.348;2023-04-24T08:26:19;15.90;99.90
17851;DHT22;9051;51.548;14.348;2023-04-24T08:28:52;15.90;99.90
17851;DHT22;9051;51.548;14.348;2023-04-24T08:31:24;15.90;99.90
17851;DHT22;9051;51.548;14.348;2023-04-24T08:33:59;15.90;99.90
17851;DHT22;9051;51.548;14.348;2023-04-24T08:36:32;16.00;99.90
17851;DHT22;9051;51.548;14.348;2023-04-24T08:39:04;16.10;99.90
17851;DHT22;9051;51.548;14.348;2023-04-24T08:41:37;16.10;99.90
17851;DHT22;9051;51.548;14.348;2023-04-24T08:44:09;16.10;99.90
17851;DHT22;9051;51.548;14.348;2023-04-24T08:46:42;16.20;99.90
17851;DHT22;9051;51.548;14.348;2023-04-24T08:49:19;16.20;99.90
17851;DHT22;9051;51.548;14.348;2023-04-24T08:51:52;16.20;99.90
17851;DHT22;9051;51.548;14.348;2023-04-24T08:54:25;16.30;99.90
17851;DHT22;9051;51.548;14.348;2023-04-24T08:56:59;16.40;99.90
17851;DHT22;9051;51.548;14.348;2023-04-24T08:59:34;16.50;99.90
17851;DHT22;9051;51.548;14.348;2023-04-24T09:02:10;16.50;99.90
17851;DHT22;9051;51.548;14.348;2023-04-24T09:04:44;16.70;99.90
17851;DHT22;9051;51.548;14.348;2023-04-24T09:07:18;16.70;99.90
17851;DHT22;9051;51.548;14.348;2023-04-24T09:09:51;16.90;99.90
17851;DHT22;9051;51.548;14.348;2023-04-24T09:12:23;17.00;99.90
17851;DHT22;9051;51.548;14.348;2023-04-24T09:14:56;17.00;99.90
17851;DHT22;9051;51.548;14.348;2023-04-24T09:17:28;17.10;99.90
17851;DHT22;9051;51.548;14.348;2023-04-24T09:20:03;17.30;99.90
17851;DHT22;9051;51.548;14.348;2023-04-24T09:22:36;17.30;99.90
17851;DHT22;9051;51.548;14.348;2023-04-24T09:25:09;17.30;99.90
17851;DHT22;9051;51.548;14.348;2023-04-24T09:27:44;17.30;99.90
17851;DHT22;9051;51.548;14.348;2023-04-24T09:30:21;17.30;99.90
17851;DHT22;9051;51.548;14.348;2023-04-24T09:33:30;17.30;99.90
17851;DHT22;9051;51.548;14.348;2023-04-24T09:36:04;17.30;99.90
17851;DHT22;9051;51.548;14.348;2023-04-24T09:38:39;17.40;99.90
17851;DHT22;9051;51.548;14.348;2023-04-24T09:41:13;17.30;99.90
17851;DHT22;9051;51.548;14.348;2023-04-24T09:43:46;17.30;99.90
17851;DHT22;9051;51.548;14.348;2023-04-24T09:46:18;17.30;99.90
17851;DHT22;9051;51.548;14.348;2023-04-24T09:48:51;17.20;99.90
17851;DHT22;9051;51.548;14.348;2023-04-24T09:51:35;17.00;99.90
17851;DHT22;9051;51.548;14.348;2023-04-24T09:54:14;16.70;99.90
17851;DHT22;9051;51.548;14.348;2023-04-24T09:56:49;16.60;99.90
17851;DHT22;9051;51.548;14.348;2023-04-24T09:59:22;16.50;99.90
17851;DHT22;9051;51.548;14.348;2023-04-24T10:01:55;16.40;99.90
17851;DHT22;9051;51.548;14.348;2023-04-24T10:04:29;16.30;99.90
17851;DHT22;9051;51.548;14.348;2023-04-24T10:07:03;16.20;99.90
17851;DHT22;9051;51.548;14.348;2023-04-24T10:09:52;16.20;99.90
17851;DHT22;9051;51.548;14.348;2023-04-24T10:12:26;16.20;99.90
17851;DHT22;9051;51.548;14.348;2023-04-24T10:15:00;16.20;99.90
17851;DHT22;9051;51.548;14.348;2023-04-24T10:17:34;16.10;99.90
17851;DHT22;9051;51.548;14.348;2023-04-24T10:20:08;16.10;99.90
17851;DHT22;9051;51.548;14.348;2023-04-24T10:22:40;16.10;99.90
17851;DHT22;9051;51.548;14.348;2023-04-24T10:25:15;16.00;99.90
17851;DHT22;9051;51.548;14.348;2023-04-24T10:27:48;15.90;99.90
17851;DHT22;9051;51.548;14.348;2023-04-24T10:30:20;15.90;99.90
17851;DHT22;9051;51.548;14.348;2023-04-24T10:32:52;15.90;99.90
17851;DHT22;9051;51.548;14.348;2023-04-24T10:35:25;15.80;99.90
17851;DHT22;9051;51.548;14.348;2023-04-24T10:37:59;15.70;99.90
17851;DHT22;9051;51.548;14.348;2023-04-24T10:40:35;15.70;99.90
17851;DHT22;9051;51.548;14.348;2023-04-24T10:43:08;15.70;99.90
17851;DHT22;9051;51.548;14.348;2023-04-24T10:46:00;15.70;99.90
17851;DHT22;9051;51.548;14.348;2023-04-24T10:48:32;15.80;99.90
17851;DHT22;9051;51.548;14.348;2023-04-24T10:51:04;15.80;99.90
17851;DHT22;9051;51.548;14.348;2023-04-24T10:53:36;15.90;99.90
17851;DHT22;9051;51.548;14.348;2023-04-24T10:56:10;16.00;99.90
17851;DHT22;9051;51.548;14.348;2023-04-24T10:58:44;16.10;99.90
17851;DHT22;9051;51.548;14.348;2023-04-24T11:01:27;16.30;99.90
17851;DHT22;9051;51.548;14.348;2023-04-24T11:04:00;16.50;99.90
17851;DHT22;9051;51.548;14.348;2023-04-24T11:06:33;16.70;99.90
17851;DHT22;9051;51.548;14.348;2023-04-24T11:09:08;16.80;99.90
17851;DHT22;9051;51.548;14.348;2023-04-24T11:11:46;16.90;99.90
17851;DHT22;9051;51.548;14.348;2023-04-24T11:14:18;16.90;99.90
17851;DHT22;9051;51.548;14.348;2023-04-24T11:16:53;16.90;99.90
17851;DHT22;9051;51.548;14.348;2023-04-24T11:19:26;16.90;99.90
17851;DHT22;9051;51.548;14.348;2023-04-24T11:22:01;16.90;99.90
17851;DHT22;9051;51.548;14.348;2023-04-24T11:24:48;16.90;99.90
17851;DHT22;9051;51.548;14.348;2023-04-24T11:27:31;16.90;99.90
17851;DHT22;9051;51.548;14.348;2023-04-24T11:30:05;16.80;99.90
17851;DHT22;9051;51.548;14.348;2023-04-24T11:32:38;16.80;99.90
17851;DHT22;9051;51.548;14.348;2023-04-24T11:35:15;16.80;99.90
17851;DHT22;9051;51.548;14.348;2023-04-24T11:37:48;16.80;99.90
17851;DHT22;9051;51.548;14.348;2023-04-24T11:40:22;16.70;99.90
17851;DHT22;9051;51.548;14.348;2023-04-24T11:42:55;16.70;99.90
17851;DHT22;9051;51.548;14.348;2023-04-24T11:45:28;16.90;99.90
17851;DHT22;9051;51.548;14.348;2023-04-24T11:48:00;17.00;99.90
17851;DHT22;9051;51.548;14.348;2023-04-24T11:50:32;17.10;99.90
17851;DHT22;9051;51.548;14.348;2023-04-24T11:53:04;17.20;99.90
17851;DHT22;9051;51.548;14.348;2023-04-24T11:55:36;17.40;99.90
17851;DHT22;9051;51.548;14.348;2023-04-24T11:58:10;17.60;99.90
17851;DHT22;9051;51.548;14.348;2023-04-24T12:00:41;17.70;99.90
17851;DHT22;9051;51.548;14.348;2023-04-24T12:03:13;17.90;99.90
17851;DHT22;9051;51.548;14.348;2023-04-24T12:05:45;18.00;99.90
17851;DHT22;9051;51.548;14.348;2023-04-24T12:08:27;18.00;99.90
17851;DHT22;9051;51.548;14.348;2023-04-24T12:11:00;18.10;99.90
17851;DHT22;9051;51.548;14.348;2023-04-24T12:13:33;18.10;99.90
17851;DHT22;9051;51.548;14.348;2023-04-24T12:16:05;18.00;99.90
17851;DHT22;9051;51.548;14.348;2023-04-24T12:18:42;18.00;99.90
17851;DHT22;9051;51.548;14.348;2023-04-24T12:21:15;17.80;99.90
17851;DHT22;9051;51.548;14.348;2023-04-24T12:23:48;17.70;99.90
17851;DHT22;9051;51.548;14.348;2023-04-24T12:26:21;17.70;99.90
17851;DHT22;9051;51.548;14.348;2023-04-24T12:29:01;17.70;99.90
17851;DHT22;9051;51.548;14.348;2023-04-24T12:31:34;17.80;99.90
17851;DHT22;9051;51.548;14.348;2023-04-24T12:34:17;17.90;99.90
17851;DHT22;9051;51.548;14.348;2023-04-24T12:36:49;18.00;99.90
17851;DHT22;9051;51.548;14.348;2023-04-24T12:39:21;18.20;99.90
17851;DHT22;9051;51.548;14.348;2023-04-24T12:41:55;18.40;99.90
17851;DHT22;9051;51.548;14.348;2023-04-24T12:44:30;18.50;99.90
17851;DHT22;9051;51.548;14.348;2023-04-24T12:47:05;18.50;99.90
17851;DHT22;9051;51.548;14.348;2023-04-24T12:49:37;18.50;99.90
17851;DHT22;9051;51.548;14.348;2023-04-24T12:52:09;18.20;99.90
17851;DHT22;9051;51.548;14.348;2023-04-24T12:54:41;18.10;99.90
17851;DHT22;9051;51.548;14.348;2023-04-24T12:57:13;17.90;99.90
17851;DHT22;9051;51.548;14.348;2023-04-24T12:59:47;17.80;99.90
17851;DHT22;9051;51.548;14.348;2023-04-24T13:02:19;17.70;99.90
17851;DHT22;9051;51.548;14.348;2023-04-24T13:04:53;17.50;99.90
17851;DHT22;9051;51.548;14.348;2023-04-24T13:07:27;17.30;99.90
17851;DHT22;9051;51.548;14.348;2023-04-24T13:09:59;17.10;99.90
17851;DHT22;9051;51.548;14.348;2023-04-24T13:12:31;16.80;99.90
17851;DHT22;9051;51.548;14.348;2023-04-24T13:15:06;16.40;99.90
17851;DHT22;9051;51.548;14.348;2023-04-24T13:17:39;16.10;99.90
17851;DHT22;9051;51.548;14.348;2023-04-24T13:20:11;15.80;99.90
17851;DHT22;9051;51.548;14.348;2023-04-24T13:22:42;15.70;99.90
17851;DHT22;9051;51.548;14.348;2023-04-24T13:25:14;15.70;99.90
17851;DHT22;9051;51.548;14.348;2023-04-24T13:27:48;15.80;99.90
17851;DHT22;9051;51.548;14.348;2023-04-24T13:30:22;15.90;99.90
17851;DHT22;9051;51.548;14.348;2023-04-24T13:32:54;16.00;99.90
17851;DHT22;9051;51.548;14.348;2023-04-24T13:35:26;16.10;99.90
17851;DHT22;9051;51.548;14.348;2023-04-24T13:37:58;16.40;99.90
17851;DHT22;9051;51.548;14.348;2023-04-24T13:40:31;16.50;99.90
17851;DHT22;9051;51.548;14.348;2023-04-24T13:43:03;16.60;99.90
17851;DHT22;9051;51.548;14.348;2023-04-24T13:45:37;16.70;99.90
17851;DHT22;9051;51.548;14.348;2023-04-24T13:48:09;16.80;99.90
17851;DHT22;9051;51.548;14.348;2023-04-24T13:50:41;16.80;99.90
17851;DHT22;9051;51.548;14.348;2023-04-24T13:53:13;16.80;99.90
17851;DHT22;9051;51.548;14.348;2023-04-24T13:55:45;16.80;99.90
17851;DHT22;9051;51.548;14.348;2023-04-24T13:58:17;16.70;99.90
17851;DHT22;9051;51.548;14.348;2023-04-24T14:00:50;16.70;99.90
17851;DHT22;9051;51.548;14.348;2023-04-24T14:03:23;16.70;99.90
17851;DHT22;9051;51.548;14.348;2023-04-24T14:05:55;16.60;99.90
17851;DHT22;9051;51.548;14.348;2023-04-24T14:08:57;16.70;99.90
17851;DHT22;9051;51.548;14.348;2023-04-24T14:11:56;16.60;99.90
17851;DHT22;9051;51.548;14.348;2023-04-24T14:18:09;16.60;99.90
17851;DHT22;9051;51.548;14.348;2023-04-24T14:21:20;16.60;99.90
17851;DHT22;9051;51.548;14.348;2023-04-24T14:23:58;16.80;99.90
17851;DHT22;9051;51.548;14.348;2023-04-24T14:26:31;17.00;99.90
17851;DHT22;9051;51.548;14.348;2023-04-24T14:29:06;17.20;99.90
17851;DHT22;9051;51.548;14.348;2023-04-24T14:31:45;17.40;99.90
17851;DHT22;9051;51.548;14.348;2023-04-24T14:34:37;17.50;99.90
17851;DHT22;9051;51.548;14.348;2023-04-24T14:37:16;17.70;99.90
17851;DHT22;9051;51.548;14.348;2023-04-24T14:39:52;17.90;99.90
17851;DHT22;9051;51.548;14.348;2023-04-24T14:42:24;17.90;99.90
17851;DHT22;9051;51.548;14.348;2023-04-24T14:45:04;17.80;99.90
17851;DHT22;9051;51.548;14.348;2023-04-24T14:47:41;17.70;99.90
17851;DHT22;9051;51.548;14.348;2023-04-24T14:50:15;17.60;99.90
17851;DHT22;9051;51.548;14.348;2023-04-24T14:52:47;17.50;99.90
17851;DHT22;9051;51.548;14.348;2023-04-24T14:58:57;17.50;99.90
17851;DHT22;9051;51.548;14.348;2023-04-24T15:01:29;17.50;99.90
17851;DHT22;9051;51.548;14.348;2023-04-24T15:04:01;17.50;99.90
17851;DHT22;9051;51.548;14.348;2023-04-24T15:06:34;17.50;99.90
17851;DHT22;9051;51.548;14.348;2023-04-24T15:09:06;17.30;99.90
17851;DHT22;9051;51.548;14.348;2023-04-24T15:11:38;17.20;99.90
17851;DHT22;9051;51.548;14.348;2023-04-24T15:14:10;17.10;99.90
17851;DHT22;9051;51.548;14.348;2023-04-24T15:16:51;17.00;99.90
17851;DHT22;9051;51.548;14.348;2023-04-24T15:19:35;16.90;99.90
17851;DHT22;9051;51.548;14.348;2023-04-24T15:22:10;16.90;99.90
17851;DHT22;9051;51.548;14.348;2023-04-24T15:25:07;16.80;99.90
17851;DHT22;9051;51.548;14.348;2023-04-24T15:28:01;16.90;99.90
17851;DHT22;9051;51.548;14.348;2023-04-24T15:30:45;16.90;99.90
17851;DHT22;9051;51.548;14.348;2023-04-24T15:33:25;17.00;99.90
17851;DHT22;9051;51.548;14.348;2023-04-24T15:36:23;17.10;99.90
17851;DHT22;9051;51.548;14.348;2023-04-24T15:39:13;17.20;99.90
17851;DHT22;9051;51.548;14.348;2023-04-24T15:41:46;17.20;99.90
17851;DHT22;9051;51.548;14.348;2023-04-24T15:44:18;17.20;99.90
17851;DHT22;9051;51.548;14.348;2023-04-24T15:46:53;17.30;99.90
17851;DHT22;9051;51.548;14.348;2023-04-24T15:49:26;17.50;99.90
17851;DHT22;9051;51.548;14.348;2023-04-24T15:51:58;17.60;99.90
17851;DHT22;9051;51.548;14.348;2023-04-24T15:54:31;17.70;99.90
17851;DHT22;9051;51.548;14.348;2023-04-24T15:57:13;17.90;99.90
17851;DHT22;9051;51.548;14.348;2023-04-24T15:59:52;17.80;99.90
17851;DHT22;9051;51.548;14.348;2023-04-24T16:02:27;17.70;99.90
17851;DHT22;9051;51.548;14.348;2023-04-24T16:05:02;17.70;99.90
17851;DHT22;9051;51.548;14.348;2023-04-24T16:08:00;17.60;99.90
17851;DHT22;9051;51.548;14.348;2023-04-24T16:10:34;17.60;99.90
17851;DHT22;9051;51.548;14.348;2023-04-24T16:13:14;17.40;99.90
17851;DHT22;9051;51.548;14.348;2023-04-24T16:15:48;17.40;99.90
17851;DHT22;9051;51.548;14.348;2023-04-24T16:18:53;17.30;99.90
17851;DHT22;9051;51.548;14.348;2023-04-24T16:21:49;17.20;99.90
17851;DHT22;9051;51.548;14.348;2023-04-24T16:28:29;17.20;99.90